Peotone Weather
Peotone-Weather Station Historical Data
 
Daily Summary for February 02, 2023 Units:  English    Metric   Both
Daily Weekly Monthly Yearly
  Current: High: Low: Average:
Temperature: 19.5 °F 21.5 °F 19.4 °F 20.2 °F
Dew Point: 14.2 °F 16 °F 14.2 °F 14.9 °F
Humidity: 79.4% 81% 78.5% 80%
Wind Speed: 4.6mph 8.1mph 4.2mph 5.7mph
Wind Gust: 9.4mph 14.2mph - -
WindSW - - SSW
Pressure: 30.21 in 30.31 in 30.21 in -
Precipitation: 0.00 in      
 
 
Tabular Data for February 02, 2023
Time Temperature Dew Point Pressure Wind Wind Speed Wind Gust Humidity Rainfall Rate (Hourly) solar
00:04 21.4 °F 15.9 °F 30.31 in SSW 6.9 mph 13 mph 79% 0.00 in 0 W/m2
00:09 21.5 °F 16 °F 30.31 in SW 7.7 mph 13 mph 79% 0.00 in 0 W/m2
00:14 21.5 °F 16 °F 30.30 in SSW 8.1 mph 13 mph 79% 0.00 in 0 W/m2
00:19 21.5 °F 16 °F 30.30 in SSW 7.6 mph 14.2 mph 79% 0.00 in 0 W/m2
00:24 21.5 °F 16 °F 30.30 in SW 7.2 mph 14.2 mph 79% 0.00 in 0 W/m2
00:29 21.5 °F 16 °F 30.30 in SSW 7.6 mph 14.2 mph 79% 0.00 in 0 W/m2
00:34 21.4 °F 15.9 °F 30.29 in SSW 6.6 mph 13 mph 79% 0.00 in 0 W/m2
00:39 21.4 °F 15.9 °F 30.29 in SSW 6 mph 13 mph 79% 0.00 in 0 W/m2
00:44 21.3 °F 15.8 °F 30.29 in SSW 5.9 mph 11.8 mph 79% 0.00 in 0 W/m2
00:49 21.2 °F 15.7 °F 30.28 in SSW 6.2 mph 11.8 mph 79% 0.00 in 0 W/m2
00:54 21.1 °F 15.4 °F 30.28 in SSW 6.2 mph 11.8 mph 78.5% 0.00 in 0 W/m2
00:59 21 °F 15.5 °F 30.28 in SSW 6.4 mph 11.8 mph 79% 0.00 in 0 W/m2
01:04 20.9 °F 15.4 °F 30.28 in SSW 5.6 mph 11.8 mph 79% 0.00 in 0 W/m2
01:09 20.9 °F 15.4 °F 30.28 in SSW 5.7 mph 11.8 mph 79% 0.00 in 0 W/m2
01:14 20.9 °F 15.4 °F 30.27 in SSW 4.8 mph 10.6 mph 79% 0.00 in 0 W/m2
01:19 20.8 °F 15.4 °F 30.27 in SSW 5.8 mph 10.6 mph 79% 0.00 in 0 W/m2
01:24 20.8 °F 15.4 °F 30.27 in SSW 5.4 mph 10.6 mph 79% 0.00 in 0 W/m2
01:29 20.8 °F 15.3 °F 30.27 in SSW 5.4 mph 10.6 mph 79% 0.00 in 0 W/m2
01:34 20.7 °F 15.3 °F 30.27 in SSW 5.4 mph 10.6 mph 79% 0.00 in 0 W/m2
01:39 20.7 °F 15.3 °F 30.27 in SSW 5 mph 10.6 mph 79% 0.00 in 0 W/m2
01:44 20.7 °F 15.2 °F 30.26 in SSW 5.2 mph 10.6 mph 79% 0.00 in 0 W/m2
01:49 20.7 °F 15.2 °F 30.26 in SSW 4.8 mph 10.6 mph 79% 0.00 in 0 W/m2
01:54 20.5 °F 15.1 °F 30.27 in SSW 6.3 mph 10.6 mph 79% 0.00 in 0 W/m2
01:59 20.4 °F 15.1 °F 30.27 in SSW 6.3 mph 10.6 mph 79.5% 0.00 in 0 W/m2
02:04 20.4 °F 15.2 °F 30.26 in SSW 6.3 mph 10.6 mph 80% 0.00 in 0 W/m2
02:09 20.4 °F 15.2 °F 30.26 in SSW 5.1 mph 11.8 mph 80% 0.00 in 0 W/m2
02:14 20.3 °F 15.2 °F 30.26 in SSW 5.1 mph 11.8 mph 80% 0.00 in 0 W/m2
02:19 20.2 °F 15 °F 30.26 in SSW 6.1 mph 11.8 mph 80% 0.00 in 0 W/m2
02:24 20 °F 14.9 °F 30.26 in SSW 6.1 mph 11.8 mph 80% 0.00 in 0 W/m2
02:29 19.9 °F 14.8 °F 30.26 in SSW 6.2 mph 10.6 mph 80% 0.00 in 0 W/m2
02:34 19.9 °F 14.7 °F 30.26 in SSW 6.3 mph 10.6 mph 80% 0.00 in 0 W/m2
02:39 19.8 °F 14.7 °F 30.25 in SSW 6 mph 10.6 mph 80% 0.00 in 0 W/m2
02:44 19.7 °F 14.6 °F 30.25 in SSW 5.1 mph 10.6 mph 80% 0.00 in 0 W/m2
02:49 19.7 °F 14.5 °F 30.24 in SSW 5.6 mph 10.6 mph 80% 0.00 in 0 W/m2
02:54 19.7 °F 14.5 °F 30.24 in SSW 6.2 mph 13 mph 80% 0.00 in 0 W/m2
02:59 19.7 °F 14.7 °F 30.24 in South 6 mph 13 mph 80.4% 0.00 in 0 W/m2
03:00 19.7 °F 14.8 °F 30.24 in South 5.8 mph 13 mph 81% 0.00 in 0 W/m2
03:09 19.8 °F 14.7 °F 30.24 in South 6.1 mph 13 mph 80.1% 0.00 in 0 W/m2
03:14 19.8 °F 14.6 °F 30.23 in South 4.8 mph 13 mph 80% 0.00 in 0 W/m2
03:19 19.8 °F 14.6 °F 30.23 in SSW 4.3 mph 13 mph 80% 0.00 in 0 W/m2
03:24 19.7 °F 14.5 °F 30.24 in SSW 5 mph 10.6 mph 80% 0.00 in 0 W/m2
03:29 19.7 °F 14.5 °F 30.24 in SSW 5.5 mph 10.6 mph 80% 0.00 in 0 W/m2
03:34 19.6 °F 14.5 °F 30.24 in SSW 6.1 mph 10.6 mph 80% 0.00 in 0 W/m2
03:39 19.5 °F 14.4 °F 30.24 in SSW 4.7 mph 10.6 mph 80% 0.00 in 0 W/m2
03:44 19.4 °F 14.3 °F 30.23 in SSW 5.8 mph 10.6 mph 80% 0.00 in 0 W/m2
03:49 19.4 °F 14.3 °F 30.23 in SSW 5.4 mph 11.8 mph 80% 0.00 in 0 W/m2
03:54 19.4 °F 14.3 °F 30.23 in SSW 5.4 mph 11.8 mph 80% 0.00 in 0 W/m2
03:59 19.5 °F 14.4 °F 30.23 in SSW 5.4 mph 11.8 mph 80% 0.00 in 0 W/m2
04:04 19.5 °F 14.4 °F 30.23 in SSW 6.3 mph 14.2 mph 80% 0.00 in 0 W/m2
04:09 19.5 °F 14.4 °F 30.23 in South 6.3 mph 14.2 mph 80% 0.00 in 0 W/m2
04:14 19.5 °F 14.3 °F 30.23 in SSW 5.3 mph 14.2 mph 80% 0.00 in 0 W/m2
04:19 19.4 °F 14.2 °F 30.23 in SSW 5.8 mph 10.6 mph 80% 0.00 in 0 W/m2
04:24 19.4 °F 14.3 °F 30.23 in South 5.4 mph 10.6 mph 80% 0.00 in 0 W/m2
04:29 19.5 °F 14.3 °F 30.23 in SSW 5.3 mph 10.6 mph 80% 0.00 in 0 W/m2
04:34 19.5 °F 14.3 °F 30.23 in SSW 5.5 mph 10.6 mph 80% 0.00 in 0 W/m2
04:39 19.5 °F 14.3 °F 30.23 in SSW 6 mph 11.8 mph 80% 0.00 in 0 W/m2
04:44 19.5 °F 14.4 °F 30.22 in SSW 5.1 mph 11.8 mph 80% 0.00 in 0 W/m2
04:49 19.5 °F 14.4 °F 30.22 in SSW 4.2 mph 11.8 mph 80% 0.00 in 0 W/m2
04:54 19.5 °F 14.4 °F 30.22 in SSW 4.6 mph 11.8 mph 80% 0.00 in 0 W/m2
04:59 19.5 °F 14.4 °F 30.22 in SSW 5 mph 10.6 mph 80% 0.00 in 0 W/m2
05:04 19.5 °F 14.4 °F 30.22 in SSW 5.1 mph 10.6 mph 80% 0.00 in 0 W/m2
05:09 19.6 °F 14.4 °F 30.21 in SSW 5.6 mph 10.6 mph 80% 0.00 in 0 W/m2
05:14 19.6 °F 14.4 °F 30.21 in SSW 4.8 mph 10.6 mph 80% 0.00 in 0 W/m2
05:19 19.5 °F 14.2 °F 30.21 in SW 4.6 mph 9.4 mph 79.4% 0.00 in 0 W/m2
Peotone Weather
Compliments of Weather Underground - 2 mb